Time;durP1;ratioP1;P1;durP2;ratioP2;P2;SDS_P1;SDS_P2;PMS_P1;PMS_P2;Temp;Humidity;BMP_temperature;BMP_pressure;BME280_temperature;BME280_humidity;BME280_pressure;Samples;Min_cycle;Max_cycle;Signal;HPM_P1;HPM_P2
2023/11/14 00:01:26;;;;;;;7.50;2.90;;;9.20;99.90;;;;;;5031983;28;20476;-62
2023/11/14 00:03:53;;;;;;;6.70;2.42;;;9.20;99.90;;;;;;5032365;28;20540;-62
2023/11/14 00:06:19;;;;;;;5.05;2.20;;;9.20;99.90;;;;;;5049176;28;20662;-62
2023/11/14 00:08:47;;;;;;;6.65;3.25;;;9.20;99.90;;;;;;5042387;28;20206;-62
2023/11/14 00:11:14;;;;;;;4.22;1.60;;;9.10;99.90;;;;;;5043412;28;20647;-62
2023/11/14 00:13:41;;;;;;;7.90;2.25;;;9.00;99.90;;;;;;5051763;28;20261;-62
2023/11/14 00:16:08;;;;;;;7.40;2.28;;;9.00;99.90;;;;;;5051628;28;20261;-62
2023/11/14 00:18:37;;;;;;;4.50;2.22;;;8.90;99.90;;;;;;5051725;28;20202;-62
2023/11/14 00:21:04;;;;;;;3.55;1.80;;;8.80;99.90;;;;;;5051862;28;20268;-62
2023/11/14 00:23:31;;;;;;;3.28;2.40;;;8.70;99.90;;;;;;5051535;28;20849;-62
2023/11/14 00:25:58;;;;;;;2.45;2.08;;;8.70;99.90;;;;;;5051252;28;20238;-62
2023/11/14 00:28:24;;;;;;;4.05;1.75;;;8.60;99.90;;;;;;5051684;28;20815;-62
2023/11/14 00:30:51;;;;;;;5.25;3.22;;;8.60;99.90;;;;;;5051690;28;20425;-63
2023/11/14 00:33:18;;;;;;;3.63;2.00;;;8.50;99.90;;;;;;5051532;28;20203;-62
2023/11/14 00:35:46;;;;;;;4.47;1.50;;;8.50;99.90;;;;;;5051366;28;20210;-62
2023/11/14 00:38:13;;;;;;;10.00;4.75;;;8.40;99.90;;;;;;5047867;28;20209;-62
2023/11/14 00:40:40;;;;;;;5.85;2.70;;;8.40;99.90;;;;;;5037937;28;20300;-62
2023/11/14 00:43:07;;;;;;;4.05;3.30;;;8.50;99.90;;;;;;5046242;28;20289;-62
2023/11/14 00:45:33;;;;;;;7.60;2.75;;;8.60;99.90;;;;;;5051239;28;20668;-62
2023/11/14 00:48:00;;;;;;;6.32;2.17;;;8.60;99.90;;;;;;5042610;28;20212;-62
2023/11/14 00:50:27;;;;;;;14.35;2.53;;;8.70;99.90;;;;;;5041729;28;20226;-62
2023/11/14 00:52:55;;;;;;;5.68;2.35;;;8.80;99.90;;;;;;5041512;28;20668;-62
2023/11/14 00:55:22;;;;;;;8.43;2.60;;;8.90;99.90;;;;;;5040678;28;20229;-62
2023/11/14 00:57:49;;;;;;;7.15;2.08;;;9.00;99.90;;;;;;5050027;28;20444;-62
2023/11/14 01:00:17;;;;;;;8.23;3.37;;;9.10;99.90;;;;;;5051238;28;20237;-62
2023/11/14 01:02:45;;;;;;;5.35;2.55;;;9.20;99.90;;;;;;5050961;28;20831;-63
2023/11/14 01:05:12;;;;;;;12.53;3.20;;;9.30;99.90;;;;;;5050955;28;20202;-62
2023/11/14 01:07:40;;;;;;;4.70;2.90;;;9.40;99.90;;;;;;5051049;28;20944;-61
2023/11/14 01:10:10;;;;;;;9.90;3.57;;;9.40;99.90;;;;;;5050995;28;20203;-62
2023/11/14 01:12:37;;;;;;;7.60;4.00;;;9.40;99.90;;;;;;5051187;28;20532;-62
2023/11/14 01:15:04;;;;;;;7.95;2.67;;;9.50;99.90;;;;;;5051025;28;20566;-62
2023/11/14 01:17:31;;;;;;;7.57;2.73;;;9.50;99.90;;;;;;5050907;28;20695;-62
2023/11/14 01:19:58;;;;;;;7.20;2.60;;;9.50;99.90;;;;;;5050786;28;20445;-62
2023/11/14 01:22:25;;;;;;;4.13;2.80;;;9.50;99.90;;;;;;5050669;28;20530;-62
2023/11/14 01:24:52;;;;;;;6.95;2.45;;;9.50;99.90;;;;;;5050517;28;20465;-62
2023/11/14 01:27:20;;;;;;;5.50;2.37;;;9.40;99.90;;;;;;5049892;28;20296;-62
2023/11/14 01:29:47;;;;;;;5.97;2.40;;;9.40;99.90;;;;;;5050808;28;20444;-62
2023/11/14 01:32:14;;;;;;;5.60;3.13;;;9.40;99.90;;;;;;5050623;28;20465;-62
2023/11/14 01:34:41;;;;;;;7.77;2.87;;;9.40;99.90;;;;;;5050481;28;20261;-62
2023/11/14 01:37:09;;;;;;;6.50;2.70;;;9.40;99.90;;;;;;5050447;28;20882;-62
2023/11/14 01:39:35;;;;;;;7.50;2.50;;;9.50;99.90;;;;;;5050617;28;20448;-62
2023/11/14 01:42:02;;;;;;;7.50;2.60;;;9.50;99.90;;;;;;5050489;28;20994;-62
2023/11/14 01:44:31;;;;;;;8.38;4.00;;;9.50;99.90;;;;;;5050657;28;20902;-62
2023/11/14 01:46:58;;;;;;;6.80;4.07;;;9.60;99.90;;;;;;5050618;28;20589;-62
2023/11/14 01:49:25;;;;;;;6.22;3.80;;;9.60;99.90;;;;;;5050468;28;20535;-62
2023/11/14 01:51:53;;;;;;;7.60;2.40;;;9.70;99.90;;;;;;5050178;28;20269;-62
2023/11/14 01:54:20;;;;;;;7.22;2.90;;;9.70;99.90;;;;;;5050557;28;20492;-62
2023/11/14 01:56:47;;;;;;;5.18;2.15;;;9.70;99.90;;;;;;5050347;28;20209;-62
2023/11/14 01:59:15;;;;;;;8.03;2.67;;;9.70;99.90;;;;;;5050591;28;20202;-62
2023/11/14 02:01:43;;;;;;;10.93;3.30;;;9.70;99.90;;;;;;5050452;28;20556;-62
2023/11/14 02:04:14;;;;;;;6.87;2.10;;;9.80;99.90;;;;;;5049837;28;20595;-62
2023/11/14 02:06:40;;;;;;;8.67;2.87;;;9.70;99.90;;;;;;5050253;28;20527;-62
2023/11/14 02:09:07;;;;;;;6.03;4.40;;;9.70;99.90;;;;;;5050294;28;20453;-62
2023/11/14 02:11:35;;;;;;;4.50;1.90;;;9.70;99.90;;;;;;5050482;28;20475;-62
2023/11/14 02:14:02;;;;;;;10.40;2.23;;;9.70;99.90;;;;;;5050584;28;21061;-62
2023/11/14 02:16:46;;;;;;;11.50;3.10;;;9.70;99.90;;;;;;5050247;28;20507;-62
2023/11/14 02:19:13;;;;;;;8.57;3.17;;;9.70;99.90;;;;;;5050497;28;20448;-62
2023/11/14 02:21:40;;;;;;;8.63;2.90;;;9.70;99.90;;;;;;5050482;28;20563;-63
2023/11/14 02:24:11;;;;;;;12.00;2.50;;;9.70;99.90;;;;;;5054329;28;20874;-62
2023/11/14 02:26:40;;;;;;;8.90;3.30;;;9.80;99.90;;;;;;5053750;28;20440;-62
2023/11/14 02:29:07;;;;;;;11.40;2.70;;;9.80;99.90;;;;;;5054115;28;20440;-62
2023/11/14 02:31:34;;;;;;;10.03;3.50;;;9.80;99.90;;;;;;5054279;28;20475;-62
2023/11/14 02:34:01;;;;;;;8.27;3.10;;;9.90;99.90;;;;;;5053855;28;20535;-62
2023/11/14 02:36:31;;;;;;;8.57;3.30;;;9.90;99.90;;;;;;5053792;28;20832;-63
2023/11/14 02:38:58;;;;;;;12.10;3.47;;;10.00;99.90;;;;;;5053538;28;20623;-62
2023/11/14 02:41:25;;;;;;;9.90;3.10;;;10.00;99.90;;;;;;5053895;28;20479;-63
2023/11/14 02:43:53;;;;;;;5.20;2.40;;;10.00;99.90;;;;;;5053548;28;20532;-62
2023/11/14 02:46:20;;;;;;;5.77;2.43;;;10.00;99.90;;;;;;5053370;28;20536;-62
2023/11/14 02:48:47;;;;;;;7.33;3.13;;;10.00;99.90;;;;;;5053625;28;20527;-62
2023/11/14 02:51:14;;;;;;;5.00;3.20;;;10.00;99.90;;;;;;5052985;28;20473;-62
2023/11/14 02:53:40;;;;;;;12.67;4.53;;;9.90;99.90;;;;;;5053445;28;20452;-62
2023/11/14 02:56:08;;;;;;;6.80;3.07;;;10.00;99.90;;;;;;5052977;28;20491;-62
2023/11/14 02:58:35;;;;;;;8.43;5.27;;;9.90;99.90;;;;;;5053387;28;20527;-62
2023/11/14 03:01:04;;;;;;;7.60;3.87;;;9.90;99.90;;;;;;5053316;28;20559;-62
2023/11/14 03:03:31;;;;;;;3.13;2.80;;;9.90;99.90;;;;;;5053475;28;20449;-62
2023/11/14 03:06:02;;;;;;;4.80;2.90;;;9.80;99.90;;;;;;5053106;28;20536;-62
2023/11/14 03:08:29;;;;;;;6.60;2.87;;;9.80;99.90;;;;;;5053384;28;20452;-62
2023/11/14 03:10:56;;;;;;;10.73;5.87;;;9.80;99.90;;;;;;5053012;28;20503;-62
2023/11/14 03:13:23;;;;;;;7.43;2.57;;;9.80;99.90;;;;;;5053494;28;20480;-62
2023/11/14 03:15:50;;;;;;;6.50;2.17;;;9.70;99.90;;;;;;5052656;28;20586;-62
2023/11/14 03:18:18;;;;;;;7.13;2.70;;;9.70;99.90;;;;;;5053078;28;20483;-62
2023/11/14 03:20:45;;;;;;;8.53;3.80;;;9.70;99.90;;;;;;5052828;28;20555;-62
2023/11/14 03:23:12;;;;;;;6.57;3.20;;;9.70;99.90;;;;;;5053185;28;20954;-63
2023/11/14 03:25:38;;;;;;;8.20;3.40;;;9.60;99.90;;;;;;5077204;22;20451;-64
2023/11/14 03:28:05;;;;;;;6.87;2.73;;;9.60;99.90;;;;;;5050882;28;20885;-64
2023/11/14 03:30:32;;;;;;;5.82;2.70;;;9.60;99.90;;;;;;5052884;28;20445;-64
2023/11/14 03:32:59;;;;;;;8.40;2.40;;;9.50;99.90;;;;;;5052855;28;20211;-63
2023/11/14 03:35:27;;;;;;;7.53;3.17;;;9.50;99.90;;;;;;5052060;28;20489;-63
2023/11/14 03:37:55;;;;;;;6.77;3.37;;;9.50;99.90;;;;;;5052660;28;20222;-63
2023/11/14 03:40:22;;;;;;;5.70;3.13;;;9.50;99.90;;;;;;5052703;28;20515;-63
2023/11/14 03:42:49;;;;;;;6.80;2.27;;;9.40;99.90;;;;;;5052939;28;20289;-63
2023/11/14 03:45:16;;;;;;;6.83;2.40;;;9.40;99.90;;;;;;5052509;28;20448;-64
2023/11/14 03:47:43;;;;;;;6.20;3.30;;;9.40;99.90;;;;;;5052529;28;20465;-64
2023/11/14 03:50:10;;;;;;;9.13;2.70;;;9.40;99.90;;;;;;5052543;28;20397;-63
2023/11/14 03:52:38;;;;;;;11.02;3.65;;;9.40;99.90;;;;;;5052884;28;20307;-63
2023/11/14 03:55:06;;;;;;;6.95;4.05;;;9.30;99.90;;;;;;5052256;28;20226;-63
2023/11/14 03:57:33;;;;;;;5.63;2.40;;;9.30;99.90;;;;;;5052431;28;20232;-64
2023/11/14 04:00:00;;;;;;;11.57;3.00;;;9.30;99.90;;;;;;5052516;28;20611;-63
2023/11/14 04:02:28;;;;;;;7.47;2.80;;;9.30;99.90;;;;;;5052108;28;20210;-63
2023/11/14 04:04:54;;;;;;;6.93;2.77;;;9.30;99.90;;;;;;5052466;28;20935;-63
2023/11/14 04:07:21;;;;;;;9.43;3.13;;;9.30;99.90;;;;;;5051658;28;20469;-64
2023/11/14 04:09:49;;;;;;;11.45;2.97;;;9.30;99.90;;;;;;5052191;28;20208;-63
2023/11/14 04:12:16;;;;;;;5.23;2.57;;;9.20;99.90;;;;;;5052335;28;20203;-62
2023/11/14 04:14:43;;;;;;;9.87;2.90;;;9.20;99.90;;;;;;5052277;28;20515;-63
2023/11/14 04:17:10;;;;;;;7.90;2.30;;;9.20;99.90;;;;;;5051782;28;20465;-64
2023/11/14 04:19:37;;;;;;;8.85;2.70;;;9.20;99.90;;;;;;5052332;28;20540;-64
2023/11/14 04:22:04;;;;;;;9.60;6.07;;;9.20;99.90;;;;;;5051905;28;20593;-63
2023/11/14 04:24:32;;;;;;;7.28;3.15;;;9.20;99.90;;;;;;5050842;28;20298;-64
2023/11/14 04:27:01;;;;;;;8.23;2.87;;;9.20;99.90;;;;;;5051396;28;20723;-64
2023/11/14 04:29:28;;;;;;;11.20;3.25;;;9.20;99.90;;;;;;5051999;28;20468;-63
2023/11/14 04:31:56;;;;;;;4.70;2.27;;;9.30;99.90;;;;;;5051949;28;20296;-64
2023/11/14 04:34:23;;;;;;;4.33;2.80;;;9.30;99.90;;;;;;5051715;28;20452;-64
2023/11/14 04:36:50;;;;;;;15.13;3.00;;;9.40;99.90;;;;;;5051282;28;20854;-64
2023/11/14 04:39:16;;;;;;;16.20;4.00;;;9.50;99.90;;;;;;5051851;28;20453;-63
2023/11/14 04:41:43;;;;;;;6.73;2.93;;;9.50;99.90;;;;;;5051593;28;20936;-64
2023/11/14 04:44:12;;;;;;;4.73;2.63;;;9.60;99.90;;;;;;5051616;28;20452;-64
2023/11/14 04:46:43;;;;;;;8.15;2.83;;;9.60;99.90;;;;;;5050881;28;20464;-64
2023/11/14 04:49:10;;;;;;;13.37;4.07;;;9.70;99.90;;;;;;5051435;28;20297;-64
2023/11/14 04:51:37;;;;;;;4.90;2.70;;;9.80;99.90;;;;;;5051680;28;20448;-63
2023/11/14 04:54:04;;;;;;;7.10;3.30;;;9.80;99.90;;;;;;5051638;28;20543;-64
2023/11/14 04:56:30;;;;;;;13.03;2.90;;;9.80;99.90;;;;;;5050988;28;20572;-64
2023/11/14 04:58:57;;;;;;;8.00;3.10;;;9.90;99.90;;;;;;5051461;28;20452;-64
2023/11/14 05:01:25;;;;;;;6.07;2.60;;;9.90;99.90;;;;;;5051256;28;20969;-64
2023/11/14 05:03:53;;;;;;;21.73;5.10;;;9.90;99.90;;;;;;5051395;28;20444;-64
2023/11/14 05:06:20;;;;;;;11.60;3.73;;;10.00;99.90;;;;;;5051039;28;21010;-64
2023/11/14 05:08:47;;;;;;;8.53;3.60;;;10.00;99.90;;;;;;5051466;28;21056;-64
2023/11/14 05:11:13;;;;;;;11.13;3.90;;;10.00;99.90;;;;;;5051282;28;20453;-64
2023/11/14 05:13:40;;;;;;;9.23;4.15;;;10.00;99.90;;;;;;5051339;28;20449;-64
2023/11/14 05:16:08;;;;;;;9.67;3.60;;;10.10;99.90;;;;;;5050646;28;20234;-65
2023/11/14 05:18:36;;;;;;;7.93;3.93;;;10.10;99.90;;;;;;5050986;28;20441;-64
2023/11/14 05:21:03;;;;;;;11.13;3.80;;;10.20;99.90;;;;;;5051207;28;20532;-64
2023/11/14 05:23:30;;;;;;;11.30;3.27;;;10.20;99.90;;;;;;5051057;28;20449;-65
2023/11/14 05:25:57;;;;;;;8.03;4.20;;;10.20;99.90;;;;;;5050654;28;20476;-64
2023/11/14 05:28:24;;;;;;;10.90;4.03;;;10.30;99.90;;;;;;5051024;28;20456;-64
2023/11/14 05:30:51;;;;;;;5.67;3.77;;;10.30;99.90;;;;;;5050653;28;20979;-65
2023/11/14 05:33:18;;;;;;;10.07;4.90;;;10.30;99.90;;;;;;5051192;28;20451;-64
2023/11/14 05:35:46;;;;;;;9.30;3.13;;;10.30;99.90;;;;;;5050712;28;20861;-64
2023/11/14 05:38:14;;;;;;;7.37;3.27;;;10.30;99.90;;;;;;5051078;28;20974;-64
2023/11/14 05:40:41;;;;;;;7.00;3.00;;;10.20;99.90;;;;;;5050918;28;20804;-63
2023/11/14 05:43:08;;;;;;;9.50;3.10;;;10.20;99.90;;;;;;5050787;28;20527;-64
2023/11/14 05:45:35;;;;;;;10.33;3.40;;;10.20;99.90;;;;;;5050580;28;20954;-64
2023/11/14 05:48:03;;;;;;;8.43;2.80;;;10.20;99.90;;;;;;5050603;28;20539;-64
2023/11/14 05:50:31;;;;;;;10.53;3.30;;;10.20;99.90;;;;;;5050794;28;20506;-64
2023/11/14 05:52:59;;;;;;;11.67;4.33;;;10.20;99.90;;;;;;5050451;28;20444;-64
2023/11/14 05:55:26;;;;;;;10.13;4.03;;;10.20;99.90;;;;;;5049892;28;20480;-64
2023/11/14 05:57:53;;;;;;;8.17;3.70;;;10.20;99.90;;;;;;5052198;28;20498;-64
2023/11/14 06:00:20;;;;;;;5.80;2.70;;;10.20;99.90;;;;;;5046406;28;20547;-64
2023/11/14 06:02:47;;;;;;;11.20;3.73;;;10.20;99.90;;;;;;5046123;28;20451;-64
2023/11/14 06:05:14;;;;;;;7.93;3.10;;;10.10;99.90;;;;;;5054525;28;20541;-64
2023/11/14 06:07:41;;;;;;;10.13;5.60;;;10.10;99.90;;;;;;5054259;28;20466;-64
2023/11/14 06:10:10;;;;;;;10.30;3.30;;;10.20;99.90;;;;;;5054465;28;20449;-64
2023/11/14 06:12:39;;;;;;;6.53;2.97;;;10.10;99.90;;;;;;5054431;28;20448;-64
2023/11/14 06:15:07;;;;;;;7.33;3.37;;;10.10;99.90;;;;;;5054106;28;20456;-63
2023/11/14 06:17:34;;;;;;;8.63;3.57;;;10.10;99.90;;;;;;5054385;28;20464;-64
2023/11/14 06:20:01;;;;;;;5.43;3.75;;;10.10;99.90;;;;;;5054344;28;20487;-65
2023/11/14 06:22:28;;;;;;;6.33;3.40;;;10.10;99.90;;;;;;5045662;28;20202;-64
2023/11/14 06:24:54;;;;;;;7.60;3.67;;;10.20;99.90;;;;;;5054137;28;20971;-64
2023/11/14 06:27:23;;;;;;;12.87;5.03;;;10.10;99.90;;;;;;5053642;28;20469;-65
2023/11/14 06:29:49;;;;;;;7.57;4.20;;;10.10;99.90;;;;;;5054175;28;20524;-64
2023/11/14 06:32:16;;;;;;;12.77;4.90;;;10.20;99.90;;;;;;5054043;28;20455;-64
2023/11/14 06:34:43;;;;;;;14.57;3.67;;;10.20;99.90;;;;;;5053988;28;20455;-64
2023/11/14 06:37:10;;;;;;;8.70;2.93;;;10.20;99.90;;;;;;5053792;28;20515;-64
2023/11/14 06:39:40;;;;;;;8.03;4.07;;;10.10;99.90;;;;;;5052640;28;20445;-63
2023/11/14 06:42:08;;;;;;;10.40;3.63;;;10.10;99.90;;;;;;5035244;28;20484;-64
2023/11/14 06:44:36;;;;;;;8.60;3.37;;;10.20;99.90;;;;;;5033867;28;21035;-63
2023/11/14 06:47:03;;;;;;;6.00;3.23;;;10.20;99.90;;;;;;5033165;28;20469;-63
2023/11/14 06:49:30;;;;;;;8.40;2.93;;;10.20;99.90;;;;;;5033928;28;20496;-64
2023/11/14 06:51:57;;;;;;;10.00;4.03;;;10.20;99.90;;;;;;5033726;28;20537;-64
2023/11/14 06:54:23;;;;;;;15.73;5.60;;;10.30;99.90;;;;;;5033914;28;20441;-64
2023/11/14 06:56:50;;;;;;;9.27;3.80;;;10.30;99.90;;;;;;5039906;28;20580;-64
2023/11/14 06:59:17;;;;;;;6.43;3.20;;;10.30;99.90;;;;;;5045339;28;20797;-64
2023/11/14 07:01:49;;;;;;;12.87;4.20;;;10.40;99.90;;;;;;5053680;28;20440;-65
2023/11/14 07:04:17;;;;;;;9.73;4.20;;;10.40;99.90;;;;;;5053709;28;20459;-64
2023/11/14 07:06:44;;;;;;;6.73;4.03;;;10.40;99.90;;;;;;5053130;28;20822;-64
2023/11/14 07:09:11;;;;;;;8.60;3.50;;;10.50;99.90;;;;;;5053185;28;20449;-64
2023/11/14 07:11:38;;;;;;;6.50;3.47;;;10.50;99.90;;;;;;5053436;28;20441;-64
2023/11/14 07:14:06;;;;;;;8.93;3.20;;;10.50;99.90;;;;;;5053474;28;20444;-63
2023/11/14 07:16:33;;;;;;;12.33;3.80;;;10.50;99.90;;;;;;5053016;28;20924;-64
2023/11/14 07:19:02;;;;;;;4.83;3.30;;;10.50;99.90;;;;;;5047042;28;20484;-63
2023/11/14 07:21:32;;;;;;;5.57;3.63;;;10.50;99.90;;;;;;5038287;28;21044;-64
2023/11/14 07:23:59;;;;;;;9.23;4.10;;;10.50;99.90;;;;;;5050249;28;20503;-64
2023/11/14 07:26:26;;;;;;;17.20;5.17;;;10.50;99.90;;;;;;5049771;28;20479;-64
2023/11/14 07:28:52;;;;;;;6.13;2.80;;;10.50;99.90;;;;;;5044740;28;20528;-64
2023/11/14 07:31:19;;;;;;;6.10;2.83;;;10.60;99.90;;;;;;5052243;28;20531;-64
2023/11/14 07:33:46;;;;;;;12.50;3.13;;;10.60;99.90;;;;;;5052696;28;20845;-64
2023/11/14 07:36:14;;;;;;;7.10;3.40;;;10.60;99.90;;;;;;5039325;28;20496;-64
2023/11/14 07:38:44;;;;;;;10.67;3.60;;;10.60;99.90;;;;;;5032802;28;21084;-63
2023/11/14 07:41:10;;;;;;;5.80;2.87;;;10.60;99.90;;;;;;5032688;28;20825;-63
2023/11/14 07:43:37;;;;;;;5.23;3.03;;;10.60;99.90;;;;;;5032523;28;20448;-64
2023/11/14 07:46:05;;;;;;;7.90;3.20;;;10.60;99.90;;;;;;5031827;28;20465;-63
2023/11/14 07:48:33;;;;;;;6.03;3.40;;;10.70;99.90;;;;;;5032740;28;20516;-63
2023/11/14 07:51:00;;;;;;;4.13;3.20;;;10.70;99.90;;;;;;5032732;28;20450;-64
2023/11/14 07:53:29;;;;;;;5.90;3.00;;;10.70;99.90;;;;;;5046894;28;20444;-64
2023/11/14 07:55:55;;;;;;;8.90;3.60;;;10.70;99.90;;;;;;5051697;28;21044;-64
2023/11/14 07:58:25;;;;;;;7.10;3.10;;;10.80;99.90;;;;;;5036743;28;20441;-64
2023/11/14 08:00:51;;;;;;;5.80;3.13;;;10.80;99.90;;;;;;5052366;28;20498;-64
2023/11/14 08:03:18;;;;;;;5.40;2.60;;;10.80;99.90;;;;;;5052061;28;20544;-64
2023/11/14 08:05:45;;;;;;;6.53;3.30;;;10.80;99.90;;;;;;5039214;28;20460;-64
2023/11/14 08:08:13;;;;;;;6.83;3.60;;;10.80;99.90;;;;;;5030976;28;20477;-65
2023/11/14 08:10:41;;;;;;;10.17;3.20;;;10.80;99.90;;;;;;5031868;28;20524;-64
2023/11/14 08:13:08;;;;;;;7.87;4.43;;;10.90;99.90;;;;;;5043287;28;20457;-63
2023/11/14 08:15:35;;;;;;;5.40;3.30;;;10.90;99.90;;;;;;5051027;28;20449;-64
2023/11/14 08:18:02;;;;;;;10.33;3.33;;;10.90;99.90;;;;;;5047478;28;20484;-65
2023/11/14 08:20:29;;;;;;;7.83;3.20;;;11.00;99.90;;;;;;5041254;28;20831;-64
2023/11/14 08:22:56;;;;;;;5.60;3.10;;;11.00;99.90;;;;;;5043815;28;20463;-64
2023/11/14 08:25:23;;;;;;;6.67;4.27;;;11.00;99.90;;;;;;5050987;28;20536;-64
2023/11/14 08:27:51;;;;;;;6.60;3.23;;;11.00;99.90;;;;;;5049249;28;20859;-64
2023/11/14 08:30:18;;;;;;;8.00;2.87;;;11.10;99.90;;;;;;5045374;28;20451;-64
2023/11/14 08:32:47;;;;;;;8.13;3.13;;;11.20;99.90;;;;;;5042809;28;20895;-63
2023/11/14 08:35:14;;;;;;;7.50;3.30;;;11.30;99.90;;;;;;5051390;28;20544;-64
2023/11/14 08:37:41;;;;;;;6.67;2.93;;;11.30;99.90;;;;;;5044277;28;20516;-65
2023/11/14 08:40:12;;;;;;;5.63;2.90;;;11.30;99.90;;;;;;5046232;28;20452;-64
2023/11/14 08:42:38;;;;;;;7.37;3.27;;;11.40;99.90;;;;;;5047777;28;20457;-64
2023/11/14 08:45:08;;;;;;;8.70;4.63;;;11.50;99.90;;;;;;5049998;28;20441;-64
2023/11/14 08:47:35;;;;;;;5.87;3.50;;;11.60;99.90;;;;;;5046826;28;20551;-65
2023/11/14 08:50:02;;;;;;;6.30;3.40;;;11.70;99.90;;;;;;5048192;28;20938;-65
2023/11/14 08:52:29;;;;;;;5.00;3.47;;;11.70;99.90;;;;;;5048906;28;20548;-65
2023/11/14 08:54:57;;;;;;;12.83;2.90;;;11.70;99.90;;;;;;5043467;28;20850;-64
2023/11/14 08:57:24;;;;;;;12.67;4.60;;;11.80;99.90;;;;;;5046590;28;21128;-65
2023/11/14 08:59:51;;;;;;;14.80;3.60;;;11.80;99.90;;;;;;5049272;28;20441;-64
2023/11/14 09:02:19;;;;;;;5.20;2.53;;;11.80;99.90;;;;;;5047757;28;20467;-63
2023/11/14 09:04:46;;;;;;;3.83;3.33;;;11.80;99.90;;;;;;5044228;28;20471;-63
2023/11/14 09:07:12;;;;;;;8.63;5.00;;;11.80;99.90;;;;;;5047002;28;21050;-64
2023/11/14 09:09:39;;;;;;;11.53;5.33;;;11.80;99.90;;;;;;5041831;28;20522;-64
2023/11/14 09:12:08;;;;;;;6.00;4.00;;;11.80;99.90;;;;;;5046089;28;20458;-64
2023/11/14 09:14:35;;;;;;;5.93;2.37;;;11.80;99.90;;;;;;5044197;28;20541;-64
2023/11/14 09:17:03;;;;;;;7.07;3.57;;;11.80;99.90;;;;;;5046237;28;20851;-65
2023/11/14 09:19:32;;;;;;;7.50;3.97;;;11.80;99.90;;;;;;5048589;28;20507;-64
2023/11/14 09:22:00;;;;;;;5.67;3.70;;;11.80;99.90;;;;;;5043598;28;20464;-64
2023/11/14 09:24:26;;;;;;;4.53;2.50;;;11.80;99.90;;;;;;5050337;28;20487;-65
2023/11/14 09:26:53;;;;;;;7.57;3.20;;;11.80;99.90;;;;;;5043248;28;20473;-64
2023/11/14 09:29:20;;;;;;;7.47;3.63;;;11.80;99.90;;;;;;5049503;28;20528;-64
2023/11/14 09:31:48;;;;;;;8.50;3.50;;;11.80;99.90;;;;;;5042795;28;20463;-64
2023/11/14 09:34:15;;;;;;;3.33;2.37;;;11.80;99.90;;;;;;5045035;28;20460;-64
2023/11/14 09:36:43;;;;;;;4.30;2.70;;;11.90;99.90;;;;;;5049714;28;20488;-63
2023/11/14 09:39:12;;;;;;;6.73;3.80;;;11.90;99.90;;;;;;5049074;28;20540;-64
2023/11/14 09:41:39;;;;;;;7.23;3.13;;;11.90;99.90;;;;;;5045809;28;20460;-65
2023/11/14 09:44:07;;;;;;;3.93;2.50;;;12.00;99.90;;;;;;5054533;28;20540;-64
2023/11/14 09:46:34;;;;;;;11.03;4.00;;;12.00;99.90;;;;;;5045772;28;20458;-65
2023/11/14 09:51:35;;;;;;;5.87;2.80;;;12.00;99.90;;;;;;5012287;28;20474;-64
2023/11/14 09:54:04;;;;;;;10.53;2.90;;;12.00;99.90;;;;;;5014472;28;20820;-64
2023/11/14 09:56:30;;;;;;;10.83;4.17;;;12.00;99.90;;;;;;5014492;28;20564;-64
2023/11/14 09:58:58;;;;;;;7.27;3.03;;;12.00;99.90;;;;;;5014533;28;20450;-64
2023/11/14 10:01:25;;;;;;;5.37;2.73;;;12.00;99.90;;;;;;5023193;28;20453;-64
2023/11/14 10:03:52;;;;;;;9.63;3.10;;;12.00;99.90;;;;;;5034262;28;20445;-64
2023/11/14 10:06:19;;;;;;;7.47;2.73;;;12.00;99.90;;;;;;5033492;28;20446;-64
2023/11/14 10:08:47;;;;;;;3.43;2.60;;;12.10;99.90;;;;;;5034134;28;20445;-63
2023/11/14 10:11:15;;;;;;;7.20;2.60;;;12.10;99.90;;;;;;5034386;28;20487;-63
2023/11/14 10:13:42;;;;;;;9.20;6.10;;;12.10;99.90;;;;;;5035001;28;20453;-62
2023/11/14 10:16:18;;;;;;;6.50;3.10;;;12.10;99.90;;;;;;5034373;28;20454;-63
2023/11/14 10:18:45;;;;;;;7.10;2.67;;;12.10;99.90;;;;;;5013825;28;20603;-63
2023/11/14 10:21:29;;;;;;;14.47;5.63;;;12.10;99.90;;;;;;5014665;28;20466;-63
2023/11/14 10:23:57;;;;;;;6.63;3.03;;;12.20;99.90;;;;;;5017287;28;20555;-63
2023/11/14 10:26:27;;;;;;;5.33;2.63;;;12.20;99.90;;;;;;5025196;28;20485;-63
2023/11/14 10:28:56;;;;;;;4.30;2.27;;;12.20;99.90;;;;;;5024223;28;20486;-63
2023/11/14 10:31:36;;;;;;;6.03;2.80;;;12.20;99.90;;;;;;5022168;28;20548;-63
2023/11/14 10:34:04;;;;;;;6.47;2.73;;;12.20;99.90;;;;;;5018956;28;20477;-63
2023/11/14 10:36:31;;;;;;;5.63;2.80;;;12.20;99.90;;;;;;5017692;28;20453;-63
2023/11/14 10:39:04;;;;;;;8.00;5.67;;;12.20;99.90;;;;;;5024104;28;21062;-63
2023/11/14 10:41:33;;;;;;;6.73;2.57;;;12.20;99.90;;;;;;5023472;28;20462;-63
2023/11/14 10:44:10;;;;;;;3.87;2.90;;;12.20;99.90;;;;;;5023915;28;20462;-63
2023/11/14 10:46:37;;;;;;;5.00;2.50;;;12.20;99.90;;;;;;5023708;28;20457;-63
2023/11/14 10:49:08;;;;;;;9.40;3.50;;;12.20;99.90;;;;;;5026379;28;20458;-62
2023/11/14 10:51:37;;;;;;;9.67;2.60;;;12.20;99.90;;;;;;5023510;28;20444;-63
2023/11/14 10:54:06;;;;;;;4.03;2.87;;;12.20;99.90;;;;;;5018206;28;21020;-63
2023/11/14 10:56:35;;;;;;;2.17;1.97;;;12.20;99.90;;;;;;5023276;28;20446;-63
2023/11/14 10:59:04;;;;;;;2.90;2.30;;;12.20;99.90;;;;;;5023415;28;20490;-63
2023/11/14 11:01:33;;;;;;;6.17;3.83;;;12.20;99.90;;;;;;5023771;28;20450;-63
2023/11/14 11:04:01;;;;;;;4.33;2.33;;;12.10;99.90;;;;;;5021095;28;20903;-63
2023/11/14 11:06:28;;;;;;;5.87;2.60;;;12.10;99.90;;;;;;5022232;28;20632;-63
2023/11/14 11:08:55;;;;;;;7.30;2.87;;;12.00;99.90;;;;;;5023565;28;20528;-63
2023/11/14 11:11:26;;;;;;;7.90;3.93;;;12.00;99.90;;;;;;5019186;28;20999;-62
2023/11/14 11:13:56;;;;;;;4.67;2.60;;;12.00;99.90;;;;;;5025700;28;20450;-63
2023/11/14 11:16:42;;;;;;;5.10;3.47;;;12.00;99.90;;;;;;5021825;28;20446;-63
2023/11/14 11:19:10;;;;;;;6.93;2.57;;;12.10;99.90;;;;;;5021811;28;20864;-63
2023/11/14 11:21:37;;;;;;;3.10;2.13;;;12.00;99.90;;;;;;5018903;28;20546;-63
2023/11/14 11:24:07;;;;;;;6.00;2.60;;;12.10;99.90;;;;;;5022000;28;20454;-62
2023/11/14 11:26:54;;;;;;;6.10;3.97;;;12.10;99.90;;;;;;5023110;28;21211;-63
2023/11/14 11:29:50;;;;;;;3.70;2.30;;;12.10;99.90;;;;;;5016471;28;20474;-63
2023/11/14 11:32:24;;;;;;;7.53;3.10;;;12.10;99.90;;;;;;5017081;28;20462;-63
2023/11/14 11:35:21;;;;;;;11.53;3.83;;;12.10;99.90;;;;;;5016675;28;20457;-64
2023/11/14 11:37:49;;;;;;;10.40;4.00;;;12.10;99.90;;;;;;5013203;28;20513;-62
2023/11/14 11:40:17;;;;;;;5.17;3.27;;;12.10;99.90;;;;;;5023384;28;20544;-63
2023/11/14 11:42:44;;;;;;;6.10;2.77;;;12.10;99.90;;;;;;5024221;28;20482;-62
2023/11/14 11:45:49;;;;;;;5.00;2.20;;;12.10;99.90;;;;;;5011898;28;20443;-63
2023/11/14 11:48:32;;;;;;;6.30;2.70;;;12.10;99.90;;;;;;5008758;28;20469;-63
2023/11/14 11:51:17;;;;;;;11.03;3.20;;;12.20;99.90;;;;;;5017751;28;20481;-63
2023/11/14 11:53:44;;;;;;;4.63;3.20;;;12.20;99.90;;;;;;5024225;28;20456;-63
2023/11/14 11:56:41;;;;;;;2.90;2.70;;;12.30;99.90;;;;;;5030880;28;20479;-63
2023/11/14 11:59:08;;;;;;;4.90;2.40;;;12.30;99.90;;;;;;5031513;28;21000;-64
2023/11/14 12:01:45;;;;;;;6.57;2.33;;;12.40;99.90;;;;;;5030635;28;20945;-64
2023/11/14 12:04:16;;;;;;;6.00;2.63;;;12.40;99.90;;;;;;5031619;28;20505;-63
2023/11/14 12:06:44;;;;;;;5.60;2.43;;;12.40;99.90;;;;;;5031425;28;20453;-63
2023/11/14 12:09:12;;;;;;;4.10;2.13;;;12.40;99.90;;;;;;5031662;28;20553;-63
2023/11/14 12:11:40;;;;;;;3.87;2.23;;;12.40;99.90;;;;;;5027812;28;20945;-64
2023/11/14 12:14:07;;;;;;;5.30;2.60;;;12.50;99.90;;;;;;5023680;28;20532;-63
2023/11/14 12:16:36;;;;;;;5.13;2.87;;;12.50;99.90;;;;;;5031127;28;20500;-64
2023/11/14 12:19:03;;;;;;;4.90;3.33;;;12.50;99.90;;;;;;5031100;28;20866;-63
2023/11/14 12:21:32;;;;;;;5.50;3.10;;;12.50;99.90;;;;;;5031360;28;20537;-63
2023/11/14 12:24:02;;;;;;;4.90;3.23;;;12.60;99.90;;;;;;5031918;28;20472;-63
2023/11/14 12:26:30;;;;;;;7.13;2.70;;;12.60;99.90;;;;;;5022293;28;20489;-63
2023/11/14 12:28:57;;;;;;;5.50;3.00;;;12.60;99.90;;;;;;5023498;28;20525;-63
2023/11/14 12:31:27;;;;;;;8.20;3.63;;;12.60;99.90;;;;;;5017576;28;20447;-63
2023/11/14 12:33:56;;;;;;;6.03;2.60;;;12.60;99.90;;;;;;5024426;28;20477;-63
2023/11/14 12:36:23;;;;;;;4.50;3.20;;;12.60;99.90;;;;;;5031232;28;20456;-63
2023/11/14 12:38:53;;;;;;;7.87;2.50;;;12.60;99.90;;;;;;5028422;28;20576;-62
2023/11/14 12:41:22;;;;;;;5.80;2.47;;;12.60;99.90;;;;;;5011422;28;20462;-63
2023/11/14 12:43:52;;;;;;;5.13;2.33;;;12.60;99.90;;;;;;5011807;28;20450;-62
2023/11/14 12:46:25;;;;;;;2.23;2.13;;;12.50;99.90;;;;;;5018652;28;20522;-63
2023/11/14 12:49:09;;;;;;;3.33;3.00;;;12.50;99.90;;;;;;4992364;28;20994;-63
2023/11/14 12:51:36;;;;;;;3.70;2.30;;;12.50;99.90;;;;;;4992710;28;20487;-63
2023/11/14 12:54:04;;;;;;;6.30;2.80;;;12.50;99.90;;;;;;4992149;28;20526;-63
2023/11/14 12:56:31;;;;;;;3.37;2.13;;;12.50;99.90;;;;;;4991619;28;20451;-62